createdAt,value
2018-11-23T00:00:19.837Z,95.87
2018-11-23T00:02:48.872Z,94.87
2018-11-23T00:05:17.633Z,95.23
2018-11-23T00:07:46.429Z,96.73
2018-11-23T00:10:16.351Z,100.13
2018-11-23T00:12:45.010Z,93.70
2018-11-23T00:15:20.653Z,93.33
2018-11-23T00:17:49.210Z,99.50
2018-11-23T00:20:18.884Z,97.23
2018-11-23T00:22:47.281Z,92.77
2018-11-23T00:25:16.848Z,92.40
2018-11-23T00:27:45.348Z,98.53
2018-11-23T00:30:17.036Z,97.40
2018-11-23T00:32:45.772Z,99.97
2018-11-23T00:35:16.205Z,90.80
2018-11-23T00:37:45.082Z,94.13
2018-11-23T00:40:18.813Z,92.27
2018-11-23T00:42:47.458Z,91.03
2018-11-23T00:45:16.000Z,91.73
2018-11-23T00:47:45.277Z,92.13
2018-11-23T00:50:15.121Z,91.70
2018-11-23T00:52:44.188Z,86.33
2018-11-23T00:55:14.390Z,90.57
2018-11-23T00:57:43.107Z,88.30
2018-11-23T01:00:17.153Z,85.40
2018-11-23T01:02:45.794Z,88.20
2018-11-23T01:05:15.893Z,87.67
2018-11-23T01:07:45.127Z,91.00
2018-11-23T01:10:15.134Z,85.57
2018-11-23T01:12:45.670Z,89.37
2018-11-23T01:15:14.747Z,92.50
2018-11-23T01:17:43.445Z,90.73
2018-11-23T01:20:15.295Z,86.73
2018-11-23T01:22:44.076Z,87.57
2018-11-23T01:25:13.796Z,90.67
2018-11-23T01:27:43.087Z,86.83
2018-11-23T01:30:16.035Z,83.50
2018-11-23T01:32:44.562Z,85.63
2018-11-23T01:35:13.374Z,88.60
2018-11-23T01:37:41.935Z,92.33
2018-11-23T01:40:12.845Z,90.07
2018-11-23T01:42:41.261Z,83.93
2018-11-23T01:45:10.674Z,86.63
2018-11-23T01:47:39.933Z,84.93
2018-11-23T01:50:16.339Z,82.60
2018-11-23T01:52:45.921Z,94.93
2018-11-23T01:55:15.565Z,91.23
2018-11-23T01:57:44.428Z,87.63
2018-11-23T02:00:15.260Z,89.77
2018-11-23T02:02:44.063Z,99.93
2018-11-23T02:05:12.549Z,89.23
2018-11-23T02:07:40.942Z,91.07
2018-11-23T02:10:10.838Z,95.00
2018-11-23T02:12:39.367Z,92.83
2018-11-23T02:15:09.970Z,92.20
2018-11-23T02:17:39.231Z,95.47
2018-11-23T02:20:09.496Z,92.23
2018-11-23T02:22:38.082Z,96.63
2018-11-23T02:25:06.869Z,96.50
2018-11-23T02:27:35.480Z,98.30
2018-11-23T02:30:04.788Z,91.40
2018-11-23T02:32:33.213Z,102.10
2018-11-23T02:35:01.598Z,96.17
2018-11-23T02:37:30.071Z,108.57
2018-11-23T02:39:58.597Z,94.63
2018-11-23T02:42:27.625Z,93.43
2018-11-23T02:44:56.188Z,94.17
2018-11-23T02:47:24.678Z,100.07
2018-11-23T02:49:53.066Z,101.93
2018-11-23T02:52:21.961Z,98.23
2018-11-23T02:54:50.447Z,96.33
2018-11-23T02:57:18.889Z,91.17
2018-11-23T02:59:47.280Z,96.50
2018-11-23T03:02:16.517Z,95.63
2018-11-23T03:04:45.038Z,94.57
2018-11-23T03:07:13.569Z,91.87
2018-11-23T03:09:41.981Z,96.70
2018-11-23T03:12:10.501Z,92.60
2018-11-23T03:14:39.665Z,102.67
2018-11-23T03:17:08.088Z,91.90
2018-11-23T03:19:36.585Z,95.63
2018-11-23T03:22:05.297Z,101.60
2018-11-23T03:24:33.673Z,117.83
2018-11-23T03:27:02.219Z,98.03
2018-11-23T03:29:30.610Z,101.57
2018-11-23T03:31:59.014Z,101.03
2018-11-23T03:34:27.422Z,100.77
2018-11-23T03:36:55.920Z,109.57
2018-11-23T03:39:24.360Z,110.37
2018-11-23T03:41:52.779Z,100.43
2018-11-23T03:44:21.205Z,106.53
2018-11-23T03:46:49.721Z,110.50
2018-11-23T03:49:18.604Z,112.40
2018-11-23T03:51:47.105Z,112.50
2018-11-23T03:54:15.509Z,108.07
2018-11-23T03:56:44.051Z,108.37
2018-11-23T03:59:12.510Z,110.90
2018-11-23T04:01:40.905Z,109.60
2018-11-23T04:04:09.301Z,114.97
2018-11-23T04:06:37.698Z,112.20
2018-11-23T04:09:08.128Z,113.90
2018-11-23T04:11:36.610Z,111.47
2018-11-23T04:14:05.341Z,114.03
2018-11-23T04:16:33.822Z,112.87
2018-11-23T04:19:02.190Z,113.57
2018-11-23T04:21:30.617Z,106.70
2018-11-23T04:23:59.002Z,109.40
2018-11-23T04:26:27.424Z,99.53
2018-11-23T04:28:56.316Z,104.33
2018-11-23T04:31:24.725Z,113.60
2018-11-23T04:33:53.193Z,105.43
2018-11-23T04:36:21.651Z,102.67
2018-11-23T04:38:50.185Z,104.40
2018-11-23T04:41:18.694Z,109.60
2018-11-23T04:43:47.305Z,99.93
2018-11-23T04:46:15.717Z,100.33
2018-11-23T04:48:45.026Z,104.03
2018-11-23T04:51:13.557Z,107.23
2018-11-23T04:53:42.089Z,102.03
2018-11-23T04:56:10.546Z,99.67
2018-11-23T04:58:39.050Z,102.00
2018-11-23T05:01:07.609Z,97.77
2018-11-23T05:03:36.843Z,97.30
2018-11-23T05:06:05.646Z,102.93
2018-11-23T05:08:34.716Z,99.10
2018-11-23T05:11:03.158Z,128.57
2018-11-23T05:13:31.650Z,96.10
2018-11-23T05:16:00.068Z,99.47
2018-11-23T05:18:28.542Z,95.97
2018-11-23T05:20:58.303Z,98.33
2018-11-23T05:23:27.221Z,94.97
2018-11-23T05:25:55.734Z,98.03
2018-11-23T05:28:24.262Z,101.20
2018-11-23T05:30:52.794Z,95.57
2018-11-23T05:33:21.293Z,98.40
2018-11-23T05:35:49.835Z,92.50
2018-11-23T05:38:18.285Z,96.73
2018-11-23T05:40:46.690Z,98.57
2018-11-23T05:43:15.103Z,97.20
2018-11-23T05:45:43.676Z,105.87
2018-11-23T05:48:12.089Z,92.90
2018-11-23T05:50:40.526Z,97.10
2018-11-23T05:53:09.022Z,92.93
2018-11-23T05:55:37.417Z,92.40
2018-11-23T05:58:06.106Z,100.77
2018-11-23T06:00:34.674Z,94.47
2018-11-23T06:03:04.085Z,99.07
2018-11-23T06:05:32.628Z,98.77
2018-11-23T06:08:01.747Z,96.53
2018-11-23T06:10:30.250Z,101.00
2018-11-23T06:12:58.701Z,104.17
2018-11-23T06:15:27.163Z,108.50
2018-11-23T06:17:55.618Z,101.27
2018-11-23T06:20:26.049Z,100.80
2018-11-23T06:22:55.210Z,97.97
2018-11-23T06:25:27.454Z,102.27
2018-11-23T06:27:55.897Z,107.20
2018-11-23T06:30:24.445Z,101.90
2018-11-23T06:33:04.209Z,109.03
2018-11-23T06:35:32.629Z,102.57
2018-11-23T06:38:01.154Z,108.40
2018-11-23T06:40:29.727Z,111.53
2018-11-23T06:42:59.063Z,95.63
2018-11-23T06:45:27.549Z,106.53
2018-11-23T06:47:57.316Z,102.00
2018-11-23T06:50:25.989Z,105.27
2018-11-23T06:52:54.489Z,104.13
2018-11-23T06:55:22.909Z,104.37
2018-11-23T06:57:51.353Z,98.00
2018-11-23T07:00:19.770Z,99.27
2018-11-23T07:02:48.177Z,101.73
2018-11-23T07:05:16.553Z,90.73
2018-11-23T07:07:45.007Z,94.23
2018-11-23T07:12:42.177Z,98.30
2018-11-23T07:15:12.194Z,94.10
2018-11-23T07:17:44.989Z,90.57
2018-11-23T07:20:15.006Z,93.50
2018-11-23T07:22:43.965Z,83.63
2018-11-23T07:25:13.800Z,88.63
2018-11-23T07:27:42.878Z,89.03
2018-11-23T07:30:19.874Z,87.50
2018-11-23T07:32:48.422Z,93.27
2018-11-23T07:35:17.156Z,87.60
2018-11-23T07:37:46.297Z,85.17
2018-11-23T07:40:29.591Z,81.93
2018-11-23T07:42:58.247Z,87.90
2018-11-23T07:45:26.678Z,87.77
2018-11-23T07:47:55.099Z,86.33
2018-11-23T07:50:23.509Z,80.87
2018-11-23T07:52:51.933Z,82.93
2018-11-23T07:55:20.346Z,80.60
2018-11-23T07:57:49.387Z,77.67
2018-11-23T08:00:19.359Z,74.90
2018-11-23T08:02:48.354Z,75.30
2018-11-23T08:05:17.773Z,73.93
2018-11-23T08:07:46.185Z,76.67
2018-11-23T08:10:14.718Z,74.30
2018-11-23T08:12:44.443Z,72.00
2018-11-23T08:15:15.227Z,73.23
2018-11-23T08:17:43.705Z,76.37
2018-11-23T08:20:14.006Z,74.50
2018-11-23T08:22:42.753Z,65.50
2018-11-23T08:25:12.268Z,66.77
2018-11-23T08:27:41.159Z,74.93
2018-11-23T08:30:17.657Z,60.67
2018-11-23T08:32:46.213Z,68.93
2018-11-23T08:35:14.911Z,62.90
2018-11-23T08:37:43.465Z,68.00
2018-11-23T08:40:14.840Z,66.80
2018-11-23T08:42:44.537Z,69.97
2018-11-23T08:45:14.674Z,61.87
2018-11-23T08:47:43.117Z,64.27
2018-11-23T08:50:19.114Z,71.73
2018-11-23T08:52:47.525Z,62.93
2018-11-23T08:55:17.385Z,67.97
2018-11-23T08:57:45.846Z,74.97
2018-11-23T09:00:21.443Z,69.70
2018-11-23T09:02:52.079Z,74.07
2018-11-23T09:05:20.540Z,68.73
2018-11-23T09:07:50.275Z,69.90
2018-11-23T09:10:20.220Z,66.30
2018-11-23T09:12:50.362Z,67.37
2018-11-23T09:15:18.795Z,68.00
2018-11-23T09:17:47.309Z,68.40
2018-11-23T09:20:16.546Z,66.43
2018-11-23T09:22:45.121Z,67.47
2018-11-23T09:25:15.065Z,66.87
2018-11-23T09:27:43.535Z,66.03
2018-11-23T09:30:15.824Z,71.20
2018-11-23T09:32:44.986Z,64.57
2018-11-23T09:35:13.503Z,72.80
2018-11-23T09:40:13.703Z,69.33
2018-11-23T09:42:42.590Z,69.00
2018-11-23T09:45:13.654Z,67.47
2018-11-23T09:47:42.201Z,65.93
2018-11-23T09:50:13.720Z,64.47
2018-11-23T09:52:42.567Z,64.00
2018-11-23T09:55:11.102Z,61.83
2018-11-23T09:57:39.893Z,62.00
2018-11-23T10:00:12.252Z,66.00
2018-11-23T10:02:41.444Z,59.50
2018-11-23T10:05:10.938Z,59.10
2018-11-23T10:07:39.631Z,59.07
2018-11-23T10:10:09.734Z,62.30
2018-11-23T10:12:38.357Z,55.17
2018-11-23T10:15:07.789Z,61.47
2018-11-23T10:17:36.194Z,58.63
2018-11-23T10:20:06.584Z,57.87
2018-11-23T10:22:35.101Z,48.10
2018-11-23T10:25:03.947Z,43.53
2018-11-23T10:27:32.478Z,51.70
2018-11-23T10:30:01.329Z,45.63
2018-11-23T10:32:29.386Z,47.47
2018-11-23T10:34:57.902Z,46.97
2018-11-23T10:39:53.425Z,46.47
2018-11-23T10:42:21.910Z,45.67
2018-11-23T10:44:50.326Z,45.30
2018-11-23T10:47:18.766Z,44.20
2018-11-23T10:49:47.193Z,45.13
2018-11-23T10:52:15.725Z,45.43
2018-11-23T10:54:44.295Z,48.47
2018-11-23T10:57:12.848Z,47.73
2018-11-23T10:59:41.310Z,46.80
2018-11-23T11:02:15.244Z,45.17
2018-11-23T11:04:49.189Z,43.83
2018-11-23T11:07:17.688Z,45.80
2018-11-23T11:09:46.962Z,46.80
2018-11-23T11:12:15.401Z,47.60
2018-11-23T11:14:43.886Z,43.13
2018-11-23T11:17:12.394Z,46.23
2018-11-23T11:19:40.806Z,47.63
2018-11-23T11:22:09.532Z,42.90
2018-11-23T11:24:37.998Z,42.17
2018-11-23T11:27:06.432Z,42.27
2018-11-23T11:29:35.450Z,48.83
2018-11-23T11:32:03.959Z,43.13
2018-11-23T11:34:32.343Z,45.50
2018-11-23T11:37:01.562Z,46.47
2018-11-23T11:39:30.014Z,48.17
2018-11-23T11:41:58.630Z,43.97
2018-11-23T11:44:27.656Z,43.40
2018-11-23T11:46:56.184Z,46.77
2018-11-23T11:49:24.606Z,44.37
2018-11-23T11:51:53.604Z,44.93
2018-11-23T11:54:22.117Z,44.43
2018-11-23T11:56:50.629Z,46.37
2018-11-23T11:59:19.074Z,40.93
2018-11-23T12:01:47.581Z,44.70
2018-11-23T12:04:16.046Z,41.87
2018-11-23T12:06:45.216Z,42.37
2018-11-23T12:09:13.701Z,41.27
2018-11-23T12:11:42.104Z,43.67
2018-11-23T12:14:10.499Z,41.87
2018-11-23T12:16:38.917Z,45.40
2018-11-23T12:19:08.130Z,43.33
2018-11-23T12:21:35.934Z,47.20
2018-11-23T12:24:04.390Z,40.40
2018-11-23T12:26:32.797Z,43.90
2018-11-23T12:29:01.216Z,39.03
2018-11-23T12:31:29.897Z,39.47
2018-11-23T12:33:58.344Z,41.80
2018-11-23T12:36:26.822Z,42.00
2018-11-23T12:38:55.281Z,39.80
2018-11-23T12:41:23.823Z,43.17
2018-11-23T12:43:52.493Z,40.70
2018-11-23T12:46:20.970Z,38.27
2018-11-23T12:48:49.419Z,40.33
2018-11-23T12:51:17.936Z,41.60
2018-11-23T12:53:46.429Z,40.10
2018-11-23T12:56:14.986Z,40.43
2018-11-23T12:58:43.421Z,38.73
2018-11-23T13:01:11.849Z,38.47
2018-11-23T13:03:40.310Z,39.93
2018-11-23T13:06:08.834Z,40.50
2018-11-23T13:08:37.725Z,36.77
2018-11-23T13:11:06.167Z,37.07
2018-11-23T13:13:34.571Z,38.50
2018-11-23T13:16:02.967Z,37.80
2018-11-23T13:18:31.516Z,37.73
2018-11-23T13:20:59.913Z,36.97
2018-11-23T13:23:28.313Z,36.80
2018-11-23T13:25:57.502Z,38.60
2018-11-23T13:28:25.935Z,35.20
2018-11-23T13:30:54.334Z,36.77
2018-11-23T13:33:23.475Z,33.03
2018-11-23T13:35:51.886Z,36.90
2018-11-23T13:38:20.303Z,34.53
2018-11-23T13:40:48.734Z,36.20
2018-11-23T13:43:17.173Z,33.63
2018-11-23T13:45:45.627Z,36.77
2018-11-23T13:48:19.859Z,34.00
2018-11-23T13:50:42.598Z,34.83
2018-11-23T13:53:11.070Z,35.77
2018-11-23T13:55:39.506Z,33.83
2018-11-23T13:58:07.927Z,36.60
2018-11-23T14:00:36.361Z,36.20
2018-11-23T14:03:05.117Z,34.10
2018-11-23T14:05:33.546Z,37.97
2018-11-23T14:08:02.936Z,35.30
2018-11-23T14:10:31.726Z,37.30
2018-11-23T14:13:00.397Z,33.87
2018-11-23T14:15:30.234Z,33.73
2018-11-23T14:17:59.606Z,34.90
2018-11-23T14:20:28.541Z,32.83
2018-11-23T14:22:57.075Z,32.70
2018-11-23T14:25:26.864Z,35.50
2018-11-23T14:27:55.716Z,35.10
2018-11-23T14:30:25.734Z,38.13
2018-11-23T14:32:54.487Z,36.10
2018-11-23T14:35:24.559Z,32.20
2018-11-23T14:37:53.810Z,34.23
2018-11-23T14:40:22.670Z,40.13
2018-11-23T14:42:51.394Z,35.60
2018-11-23T14:45:23.386Z,39.47
2018-11-23T14:47:52.669Z,38.87
2018-11-23T14:50:26.632Z,39.93
2018-11-23T14:52:55.891Z,37.77
2018-11-23T14:55:24.577Z,40.73
2018-11-23T14:57:53.799Z,37.60
2018-11-23T15:00:29.634Z,38.33
2018-11-23T15:02:59.211Z,38.17
2018-11-23T15:05:27.677Z,40.93
2018-11-23T15:07:56.204Z,40.30
2018-11-23T15:10:26.006Z,38.23
2018-11-23T15:12:55.838Z,41.53
2018-11-23T15:15:25.828Z,39.83
2018-11-23T15:17:54.906Z,46.03
2018-11-23T15:20:25.248Z,39.43
2018-11-23T15:22:56.569Z,41.77
2018-11-23T15:25:25.045Z,51.10
2018-11-23T15:27:53.774Z,41.17
2018-11-23T15:30:25.009Z,39.93
2018-11-23T15:32:53.839Z,41.30
2018-11-23T15:35:22.862Z,40.80
2018-11-23T15:37:53.097Z,43.23
2018-11-23T15:41:37.977Z,43.03
2018-11-23T15:44:06.496Z,41.77
2018-11-23T15:49:04.408Z,43.10
2018-11-23T15:51:32.935Z,43.53
2018-11-23T15:54:01.442Z,44.87
2018-11-23T15:56:30.013Z,47.77
2018-11-23T15:58:58.626Z,41.73
2018-11-23T16:01:27.062Z,46.70
2018-11-23T16:03:55.510Z,44.13
2018-11-23T16:06:24.029Z,43.33
2018-11-23T16:08:52.462Z,43.27
2018-11-23T16:11:21.002Z,39.23
2018-11-23T16:13:49.469Z,41.67
2018-11-23T16:16:17.941Z,43.47
2018-11-23T16:18:47.016Z,43.57
2018-11-23T16:21:15.443Z,45.47
2018-11-23T16:23:43.904Z,44.37
2018-11-23T16:26:12.448Z,42.33
2018-11-23T16:28:41.072Z,42.90
2018-11-23T16:31:09.621Z,44.63
2018-11-23T16:33:38.146Z,41.83
2018-11-23T16:36:07.293Z,45.37
2018-11-23T16:38:36.678Z,45.83
2018-11-23T16:41:08.458Z,48.77
2018-11-23T16:43:42.393Z,46.53
2018-11-23T16:46:16.832Z,44.27
2018-11-23T16:48:45.294Z,46.03
2018-11-23T16:51:13.881Z,48.47
2018-11-23T16:53:42.425Z,41.77
2018-11-23T16:56:10.984Z,41.70
2018-11-23T16:58:40.381Z,51.10
2018-11-23T17:01:08.813Z,45.97
2018-11-23T17:03:37.334Z,44.77
2018-11-23T17:06:06.058Z,46.30
2018-11-23T17:08:39.687Z,45.53
2018-11-23T17:11:03.189Z,60.80
2018-11-23T17:13:31.610Z,49.70
2018-11-23T17:16:00.140Z,50.50
2018-11-23T17:18:28.610Z,47.13
2018-11-23T17:20:59.341Z,50.13
2018-11-23T17:23:25.613Z,46.73
2018-11-23T17:25:54.037Z,43.13
2018-11-23T17:28:22.437Z,44.40
2018-11-23T17:30:51.266Z,47.97
2018-11-23T17:33:19.661Z,43.40
2018-11-23T17:35:48.217Z,44.63
2018-11-23T17:38:16.618Z,44.23
2018-11-23T17:40:45.168Z,47.03
2018-11-23T17:43:13.608Z,63.17
2018-11-23T17:45:42.228Z,58.50
2018-11-23T17:48:10.690Z,53.87
2018-11-23T17:50:40.257Z,48.50
2018-11-23T17:53:08.786Z,50.67
2018-11-23T17:55:37.262Z,50.97
2018-11-23T17:58:06.338Z,48.30
2018-11-23T18:00:39.364Z,53.47
2018-11-23T18:03:04.719Z,49.93
2018-11-23T18:05:34.011Z,49.37
2018-11-23T18:08:03.102Z,50.53
2018-11-23T18:10:33.003Z,50.00
2018-11-23T18:13:01.716Z,53.87
2018-11-23T18:15:31.609Z,51.67
2018-11-23T18:18:01.251Z,48.50
2018-11-23T18:20:32.133Z,45.97
2018-11-23T18:23:01.374Z,48.77
2018-11-23T18:25:32.291Z,48.93
2018-11-23T18:28:00.798Z,47.73
2018-11-23T18:30:30.554Z,47.63
2018-11-23T18:32:59.275Z,48.53
2018-11-23T18:35:27.777Z,49.73
2018-11-23T18:37:56.345Z,48.10
2018-11-23T18:40:24.824Z,45.83
2018-11-23T18:42:53.848Z,49.20
2018-11-23T18:45:22.310Z,52.30
2018-11-23T18:47:52.203Z,54.50
2018-11-23T18:50:20.634Z,52.10
2018-11-23T18:52:49.069Z,52.63
2018-11-23T18:55:18.251Z,52.30
2018-11-23T18:57:46.386Z,56.03
2018-11-23T19:00:15.762Z,56.87
2018-11-23T19:02:49.343Z,55.37
2018-11-23T19:05:21.318Z,56.33
2018-11-23T19:07:50.557Z,57.83
2018-11-23T19:10:19.733Z,54.97
2018-11-23T19:12:48.260Z,57.63
2018-11-23T19:15:25.238Z,57.20
2018-11-23T19:17:46.547Z,59.97
2018-11-23T19:20:20.061Z,64.10
2018-11-23T19:22:50.692Z,63.53
2018-11-23T19:25:19.327Z,60.73
2018-11-23T19:27:48.934Z,58.30
2018-11-23T19:30:18.907Z,56.13
2018-11-23T19:32:47.423Z,59.47
2018-11-23T19:35:16.152Z,56.10
2018-11-23T19:37:44.624Z,56.87
2018-11-23T19:40:14.163Z,57.77
2018-11-23T19:42:43.181Z,58.43
2018-11-23T19:45:15.631Z,54.53
2018-11-23T19:47:44.155Z,55.93
2018-11-23T19:50:14.605Z,51.77
2018-11-23T19:52:43.090Z,53.93
2018-11-23T19:55:12.741Z,55.93
2018-11-23T19:57:41.329Z,59.77
2018-11-23T20:00:28.465Z,52.00
2018-11-23T20:02:56.936Z,53.90
2018-11-23T20:05:25.418Z,60.90
2018-11-23T20:07:55.493Z,55.27
2018-11-23T20:10:25.388Z,54.80
2018-11-23T20:12:55.611Z,54.63
2018-11-23T20:15:24.078Z,61.97
2018-11-23T20:17:52.601Z,57.30
2018-11-23T20:20:21.278Z,53.67
2018-11-23T20:22:50.639Z,53.83
2018-11-23T20:25:20.202Z,59.40
2018-11-23T20:27:49.946Z,56.67
2018-11-23T20:30:19.236Z,55.60
2018-11-23T20:32:49.499Z,57.10
2018-11-23T20:35:19.643Z,53.87
2018-11-23T20:37:48.228Z,53.63
2018-11-23T20:40:19.261Z,53.03
2018-11-23T20:42:47.842Z,55.37
2018-11-23T20:45:16.399Z,56.93
2018-11-23T20:47:44.994Z,60.60
2018-11-23T20:50:15.455Z,59.27
2018-11-23T20:52:44.141Z,63.37
2018-11-23T20:55:16.694Z,59.80
2018-11-23T20:57:45.183Z,59.17
2018-11-23T21:00:16.519Z,70.30
2018-11-23T21:02:45.756Z,60.20
2018-11-23T21:05:15.446Z,57.27
2018-11-23T21:07:43.906Z,54.63
2018-11-23T21:10:20.144Z,59.83
2018-11-23T21:12:43.393Z,56.67
2018-11-23T21:15:30.262Z,64.67
2018-11-23T21:18:01.480Z,64.10
2018-11-23T21:20:28.759Z,67.33
2018-11-23T21:22:57.220Z,64.30
2018-11-23T21:25:25.706Z,66.03
2018-11-23T21:27:54.184Z,70.70
2018-11-23T21:30:24.676Z,67.10
2018-11-23T21:32:54.576Z,64.07
2018-11-23T21:35:23.278Z,62.57
2018-11-23T21:37:51.794Z,72.57
2018-11-23T21:40:20.277Z,71.80
2018-11-23T21:42:48.961Z,68.23
2018-11-23T21:45:18.681Z,66.33
2018-11-23T21:47:47.239Z,65.23
2018-11-23T21:50:24.527Z,69.13
2018-11-23T21:52:46.303Z,70.97
2018-11-23T21:55:18.842Z,72.27
2018-11-23T21:57:47.426Z,75.83
2018-11-23T22:00:16.350Z,67.73
2018-11-23T22:02:44.939Z,68.77
2018-11-23T22:05:13.384Z,68.60
2018-11-23T22:07:41.863Z,67.60
2018-11-23T22:10:14.410Z,61.57
2018-11-23T22:12:42.856Z,67.13
2018-11-23T22:15:12.879Z,67.90
2018-11-23T22:17:41.421Z,63.43
2018-11-23T22:20:11.510Z,67.73
2018-11-23T22:22:40.082Z,73.70
2018-11-23T22:25:12.829Z,76.27
2018-11-23T22:27:41.361Z,81.97
2018-11-23T22:30:14.194Z,73.83
2018-11-23T22:32:42.745Z,75.23
2018-11-23T22:35:12.046Z,68.07
2018-11-23T22:37:40.481Z,65.80
2018-11-23T22:40:11.208Z,67.97
2018-11-23T22:42:40.040Z,69.50
2018-11-23T22:45:10.333Z,65.37
2018-11-23T22:47:38.746Z,71.97
2018-11-23T22:50:14.386Z,70.73
2018-11-23T22:52:42.950Z,74.10
2018-11-23T22:55:12.525Z,71.63
2018-11-23T22:57:40.947Z,76.40
2018-11-23T23:00:18.925Z,77.17
2018-11-23T23:02:47.783Z,66.93
2018-11-23T23:05:16.282Z,74.27
2018-11-23T23:07:44.829Z,82.47
2018-11-23T23:10:13.245Z,71.40
2018-11-23T23:12:41.748Z,81.43
2018-11-23T23:15:11.438Z,82.20
2018-11-23T23:17:40.498Z,80.37
2018-11-23T23:20:13.574Z,89.67
2018-11-23T23:22:42.033Z,90.77
2018-11-23T23:25:12.314Z,84.27
2018-11-23T23:27:40.741Z,78.80
2018-11-23T23:30:11.532Z,91.80
2018-11-23T23:32:40.203Z,77.60
2018-11-23T23:35:09.800Z,94.40
2018-11-23T23:37:38.887Z,81.47
2018-11-23T23:40:12.292Z,89.20
2018-11-23T23:42:40.728Z,92.73
2018-11-23T23:45:13.213Z,91.57
2018-11-23T23:47:42.394Z,120.20
2018-11-23T23:50:19.937Z,112.53
2018-11-23T23:52:48.618Z,109.13
2018-11-23T23:55:17.079Z,114.57
2018-11-23T23:57:46.453Z,107.20
